Time;durP1;ratioP1;P1;durP2;ratioP2;P2;SDS_P1;SDS_P2;PMS_P1;PMS_P2;Temp;Humidity;BMP_temperature;BMP_pressure;BME280_temperature;BME280_humidity;BME280_pressure;Samples;Min_cycle;Max_cycle;Signal;HPM_P1;HPM_P2
2021/01/27 00:02:00;;;;;;;8.00;3.00;;;0.70;78.00;;;-1.26;80.29;96242.97;5047324;28;20032;-67
2021/01/27 00:04:26;;;;;;;5.13;2.90;;;0.70;77.80;;;-1.26;79.81;96245.56;5064354;28;20040;-70
2021/01/27 00:06:52;;;;;;;5.82;2.88;;;0.60;77.50;;;-1.28;80.15;96253.41;5065616;28;20048;-70
2021/01/27 00:09:17;;;;;;;6.38;2.47;;;0.60;77.30;;;-1.28;79.67;96248.25;5060684;28;20040;-69
2021/01/27 00:11:43;;;;;;;7.75;3.40;;;0.60;77.60;;;-1.30;79.96;96239.78;5066292;28;20079;-70
2021/01/27 00:14:09;;;;;;;6.63;3.00;;;0.60;77.20;;;-1.31;79.98;96238.16;5051096;28;20032;-69
2021/01/27 00:16:34;;;;;;;7.35;3.17;;;0.60;77.30;;;-1.31;79.65;96245.91;5059248;28;20788;-69
2021/01/27 00:19:02;;;;;;;5.97;3.00;;;0.50;77.20;;;-1.31;79.41;96247.66;5057632;28;20033;-68
2021/01/27 00:21:28;;;;;;;6.03;3.00;;;0.50;77.20;;;-1.33;79.33;96247.75;5051724;28;20025;-70
2021/01/27 00:23:54;;;;;;;7.63;2.85;;;0.60;77.10;;;-1.30;79.56;96237.22;5045261;28;20128;-69
2021/01/27 00:26:19;;;;;;;7.05;2.72;;;0.70;76.70;;;-1.28;79.33;96237.91;5063172;28;20151;-69
2021/01/27 00:28:45;;;;;;;6.22;2.47;;;0.70;76.20;;;-1.27;78.97;96237.00;5059398;28;20032;-70
2021/01/27 00:31:11;;;;;;;5.75;2.80;;;0.70;76.10;;;-1.27;79.02;96229.25;5063079;28;20698;-68
2021/01/27 00:33:36;;;;;;;5.22;2.88;;;0.70;76.30;;;-1.29;78.90;96228.53;5065184;28;20075;-69
2021/01/27 00:36:02;;;;;;;6.97;3.05;;;0.70;76.00;;;-1.26;79.07;96220.56;5060860;28;20051;-69
2021/01/27 00:38:28;;;;;;;5.28;3.15;;;0.70;76.30;;;-1.25;78.78;96221.38;5030921;28;20075;-69
2021/01/27 00:40:55;;;;;;;5.55;3.00;;;0.70;75.90;;;-1.26;78.81;96210.25;5063299;28;20079;-68
2021/01/27 00:43:21;;;;;;;6.35;2.95;;;0.80;75.60;;;-1.21;78.81;96221.97;5051736;28;20477;-68
2021/01/27 00:45:48;;;;;;;5.82;2.95;;;0.80;75.70;;;-1.22;78.47;96216.00;5055144;28;20613;-69
2021/01/27 00:48:14;;;;;;;6.65;2.72;;;0.80;75.30;;;-1.25;78.42;96209.31;5058454;28;20109;-68
2021/01/27 00:50:39;;;;;;;5.93;2.42;;;0.70;75.40;;;-1.24;78.57;96216.09;5030394;28;20040;-69
2021/01/27 00:53:05;;;;;;;6.70;2.60;;;0.60;75.50;;;-1.20;78.59;96219.28;5063410;28;20067;-68
2021/01/27 00:55:31;;;;;;;6.97;2.97;;;0.70;75.30;;;-1.21;78.03;96216.81;5061681;28;20044;-68
2021/01/27 00:57:58;;;;;;;10.45;3.22;;;0.70;75.30;;;-1.25;78.29;96221.38;5032828;28;20037;-68
2021/01/27 01:00:36;;;;;;;8.25;2.88;;;0.70;75.60;;;-1.20;78.03;96214.13;5045355;28;20035;-67
2021/01/27 01:03:02;;;;;;;6.72;2.67;;;0.70;75.30;;;-1.21;78.21;96215.06;5062706;28;20045;-69
2021/01/27 01:05:34;;;;;;;8.93;3.55;;;0.70;75.10;;;-1.23;77.99;96210.00;5061647;28;20029;-68
2021/01/27 01:07:59;;;;;;;7.40;3.30;;;0.60;75.00;;;-1.20;77.72;96208.13;5025821;28;20137;-69
2021/01/27 01:10:30;;;;;;;5.60;2.55;;;0.70;75.20;;;-1.23;77.51;96204.84;5040946;28;20029;-68
2021/01/27 01:12:56;;;;;;;5.80;2.75;;;0.60;74.80;;;-1.24;77.82;96202.38;5059735;28;20041;-69
2021/01/27 01:15:23;;;;;;;5.70;2.50;;;0.70;75.10;;;-1.25;77.30;96204.16;5045959;28;20090;-69
2021/01/27 01:17:49;;;;;;;6.13;2.65;;;0.60;74.60;;;-1.32;77.49;96195.22;5044418;28;20043;-69
2021/01/27 01:20:15;;;;;;;4.72;2.30;;;0.60;74.60;;;-1.31;77.23;96207.19;5059067;28;20049;-68
2021/01/27 01:22:46;;;;;;;4.72;2.25;;;0.60;74.50;;;-1.34;77.26;96216.91;5064570;28;20459;-69
2021/01/27 01:25:12;;;;;;;4.63;2.42;;;0.60;74.60;;;-1.37;77.48;96209.38;5059474;28;20496;-69
2021/01/27 01:27:38;;;;;;;4.22;2.10;;;0.50;74.20;;;-1.41;77.19;96211.38;5048977;28;20036;-68
2021/01/27 01:30:17;;;;;;;7.00;2.70;;;0.60;74.00;;;-1.39;76.68;96219.00;5047997;28;20120;-68
2021/01/27 01:32:43;;;;;;;5.00;2.67;;;0.60;74.00;;;-1.43;77.10;96210.66;5062927;28;20032;-68
2021/01/27 01:35:11;;;;;;;6.25;2.72;;;0.60;74.10;;;-1.47;77.05;96214.41;5030984;28;20032;-68
2021/01/27 01:37:38;;;;;;;8.90;2.33;;;0.40;74.00;;;-1.51;77.43;96204.44;5047271;28;20117;-68
2021/01/27 01:40:08;;;;;;;3.83;2.30;;;0.40;74.10;;;-1.56;77.02;96197.03;5066442;28;20032;-68
2021/01/27 01:42:34;;;;;;;5.28;2.20;;;0.50;74.00;;;-1.53;76.84;96201.97;5063847;28;20178;-69
2021/01/27 01:44:59;;;;;;;7.30;2.40;;;0.50;73.80;;;-1.56;77.03;96191.88;5063127;28;20131;-69
2021/01/27 01:47:25;;;;;;;6.70;2.20;;;0.50;73.90;;;-1.60;76.77;96190.44;5063331;28;20129;-69
2021/01/27 01:49:53;;;;;;;4.93;2.70;;;0.40;73.70;;;-1.64;76.80;96189.00;5045852;28;20167;-68
2021/01/27 01:52:19;;;;;;;5.07;2.20;;;0.40;73.80;;;-1.67;76.93;96178.94;5027712;28;20447;-69
2021/01/27 01:54:49;;;;;;;5.43;2.38;;;0.30;73.90;;;-1.68;76.77;96172.13;5027779;28;20071;-68
2021/01/27 01:57:19;;;;;;;6.47;2.60;;;0.30;73.90;;;-1.72;76.80;96173.28;5063085;28;20036;-68
2021/01/27 01:59:58;;;;;;;6.10;2.20;;;0.30;74.00;;;-1.75;76.41;96166.59;5041825;28;20183;-68
2021/01/27 02:02:24;;;;;;;4.78;2.50;;;0.30;73.90;;;-1.77;77.09;96167.66;5045144;28;20408;-68
2021/01/27 02:04:56;;;;;;;8.30;2.85;;;0.20;73.90;;;-1.79;77.01;96162.59;5046224;28;20029;-68
2021/01/27 02:07:23;;;;;;;3.95;2.22;;;0.30;74.00;;;-1.82;77.03;96159.41;5029343;28;20044;-68
2021/01/27 02:09:48;;;;;;;8.40;2.88;;;0.30;74.30;;;-1.80;76.79;96165.31;5042909;28;20694;-68
2021/01/27 02:12:41;;;;;;;6.85;3.00;;;0.20;73.90;;;-1.82;76.30;96159.41;5061021;28;20255;-68
2021/01/27 02:15:25;;;;;;;5.10;2.10;;;0.20;73.80;;;-1.81;76.75;96155.88;5066522;28;20040;-68
2021/01/27 02:18:17;;;;;;;3.55;2.10;;;0.20;74.20;;;-1.81;76.49;96161.03;5048386;28;20746;-68
2021/01/27 02:21:38;;;;;;;6.18;2.45;;;0.30;74.20;;;-1.81;76.72;96161.91;5054242;28;20075;-68
2021/01/27 02:24:40;;;;;;;4.80;2.80;;;0.20;73.90;;;-1.83;76.55;96158.59;5057989;28;20067;-68
2021/01/27 02:27:19;;;;;;;3.42;2.30;;;0.20;74.20;;;-1.82;76.27;96164.56;5057983;28;20044;-68
2021/01/27 02:30:09;;;;;;;7.15;2.30;;;0.20;74.40;;;-1.80;76.45;96155.00;5038912;28;20412;-68
2021/01/27 02:33:32;;;;;;;6.30;2.30;;;0.40;74.20;;;-1.78;76.46;96155.69;5064446;28;20095;-68
2021/01/27 02:36:27;;;;;;;3.47;1.98;;;0.30;73.90;;;-1.78;76.31;96146.19;5022579;28;20064;-68
2021/01/27 02:39:06;;;;;;;8.60;2.55;;;0.40;73.90;;;-1.78;76.51;96145.38;5022116;28;20542;-68
2021/01/27 02:41:53;;;;;;;6.32;2.17;;;0.30;73.90;;;-1.78;76.86;96145.38;5047633;28;20407;-68
2021/01/27 02:44:20;;;;;;;7.00;2.30;;;0.30;73.90;;;-1.76;76.56;96153.81;5045314;28;20029;-68
2021/01/27 02:46:51;;;;;;;5.47;2.47;;;0.30;73.80;;;-1.78;76.55;96150.53;5045602;28;20029;-68
2021/01/27 02:49:41;;;;;;;4.90;2.28;;;0.30;73.90;;;-1.78;76.69;96145.38;5059988;28;20081;-68
2021/01/27 02:52:19;;;;;;;4.70;2.30;;;0.30;73.90;;;-1.78;76.35;96143.63;5044798;28;20038;-68
2021/01/27 02:55:19;;;;;;;4.47;2.40;;;0.30;73.90;;;-1.77;75.96;96128.97;5028838;28;20300;-68
2021/01/27 02:57:56;;;;;;;4.00;2.30;;;0.30;73.60;;;-1.77;76.50;96121.25;5042261;28;20082;-67
2021/01/27 03:00:52;;;;;;;4.28;2.35;;;0.30;73.70;;;-1.81;76.21;96124.97;5044835;28;20037;-68
2021/01/27 03:03:43;;;;;;;5.03;2.40;;;0.30;73.70;;;-1.82;76.38;96133.63;5051942;28;20032;-68
2021/01/27 03:06:15;;;;;;;4.30;2.15;;;0.20;73.60;;;-1.87;76.49;96127.06;5011978;28;20029;-67
2021/01/27 03:08:51;;;;;;;8.65;2.60;;;0.30;73.60;;;-1.87;76.17;96139.13;5041502;28;20112;-68
2021/01/27 03:11:32;;;;;;;6.40;2.70;;;0.20;73.50;;;-1.89;76.12;96139.25;5022960;28;20630;-67
2021/01/27 03:14:00;;;;;;;7.15;2.53;;;0.30;73.20;;;-1.93;76.26;96135.25;5044625;28;20045;-69
2021/01/27 03:16:40;;;;;;;4.93;2.60;;;0.10;73.10;;;-1.96;75.89;96129.50;5027919;28;20175;-68
2021/01/27 03:19:24;;;;;;;3.88;2.40;;;0.10;73.40;;;-2.04;75.79;96114.56;5042192;28;20043;-68
2021/01/27 03:21:55;;;;;;;4.13;2.47;;;0.10;73.30;;;-2.04;75.90;96130.03;5044207;28;20170;-68
2021/01/27 03:24:22;;;;;;;6.85;2.40;;;0.00;73.20;;;-2.09;76.13;96121.81;5049647;28;20067;-67
2021/01/27 03:27:14;;;;;;;5.88;2.80;;;0.10;73.10;;;-2.12;75.84;96127.19;5050052;28;20040;-68
2021/01/27 03:29:52;;;;;;;5.15;2.13;;;0.00;73.00;;;-2.16;75.97;96121.44;5052721;28;20094;-69
2021/01/27 03:32:24;;;;;;;4.45;2.38;;;0.00;73.70;;;-2.19;76.13;96126.00;5062961;28;20094;-68
2021/01/27 03:34:55;;;;;;;4.05;2.67;;;0.00;73.10;;;-2.24;75.74;96122.94;5075986;28;20048;-68
2021/01/27 03:37:36;;;;;;;3.92;2.22;;;0.00;73.40;;;-2.27;76.00;96112.81;5034403;28;20110;-68
2021/01/27 03:40:06;;;;;;;6.60;2.42;;;0.00;73.40;;;-2.31;76.26;96121.72;5048424;28;20573;-68
2021/01/27 03:42:45;;;;;;;4.65;2.33;;;-3276.70;73.10;;;-2.34;76.17;96119.34;5034307;28;20059;-68
2021/01/27 03:45:11;;;;;;;6.78;2.42;;;-3276.70;73.40;;;-2.37;76.06;96122.97;5034852;28;20124;-68
2021/01/27 03:48:02;;;;;;;8.15;2.78;;;-3276.70;72.80;;;-2.42;75.85;96130.22;5056192;28;20097;-68
2021/01/27 03:50:27;;;;;;;3.90;2.45;;;-3276.70;73.20;;;-2.43;76.08;96141.44;5034035;28;20523;-68
2021/01/27 03:53:09;;;;;;;6.68;2.53;;;-3276.70;73.00;;;-2.48;75.97;96121.19;5014544;28;20048;-68
2021/01/27 03:55:42;;;;;;;5.45;2.50;;;-3276.70;73.30;;;-2.49;76.40;96140.13;5031714;28;20032;-68
2021/01/27 03:58:18;;;;;;;5.13;2.40;;;-3276.70;73.10;;;-2.54;76.21;96126.75;5027511;28;20458;-68
2021/01/27 04:00:46;;;;;;;5.38;2.65;;;-3276.60;73.00;;;-2.59;76.38;96126.25;5039388;28;20052;-68
2021/01/27 04:03:18;;;;;;;6.03;2.70;;;-3276.60;72.80;;;-2.61;75.97;96135.00;5066347;28;20041;-68
2021/01/27 04:05:44;;;;;;;3.55;2.28;;;-3276.50;72.60;;;-2.64;75.96;96120.59;5059267;28;20033;-68
2021/01/27 04:08:10;;;;;;;5.35;2.67;;;-3276.50;72.70;;;-2.67;76.20;96125.97;5066937;28;20119;-69
2021/01/27 04:10:35;;;;;;;6.25;2.33;;;-3276.50;72.60;;;-2.73;75.91;96112.69;5032858;28;20063;-68
2021/01/27 04:13:01;;;;;;;6.47;2.55;;;-3276.40;72.80;;;-2.75;76.24;96114.56;5049252;28;20044;-67
2021/01/27 04:15:27;;;;;;;4.50;2.35;;;-3276.30;73.10;;;-2.76;76.09;96108.59;5045457;28;20540;-68
2021/01/27 04:17:53;;;;;;;5.50;2.78;;;-3276.30;73.30;;;-2.80;76.23;96104.59;5057332;28;20033;-67
2021/01/27 04:20:19;;;;;;;8.13;2.65;;;-3276.40;73.30;;;-2.81;76.23;96108.91;5049502;28;20052;-69
2021/01/27 04:22:45;;;;;;;4.32;2.35;;;-3276.40;72.80;;;-2.84;75.99;96116.03;5047133;28;20437;-68
2021/01/27 04:25:12;;;;;;;4.40;2.60;;;-3276.30;72.80;;;-2.83;76.01;96112.53;5048736;28;20511;-69
2021/01/27 04:27:37;;;;;;;9.30;3.00;;;-3276.30;72.90;;;-2.87;76.13;96111.09;5061731;28;20042;-68
2021/01/27 04:30:05;;;;;;;4.78;2.38;;;-3276.20;73.10;;;-2.88;75.79;96122.31;5081121;28;20256;-68
2021/01/27 04:32:31;;;;;;;6.72;2.78;;;-3276.20;73.30;;;-2.90;75.83;96119.03;5048436;28;20033;-68
2021/01/27 04:34:56;;;;;;;5.68;2.63;;;-3276.30;73.20;;;-2.94;76.15;96117.56;5043658;28;20029;-65
2021/01/27 04:37:22;;;;;;;6.07;2.70;;;-3276.10;72.90;;;-3.00;76.34;96115.44;5064786;28;20040;-67
2021/01/27 04:39:48;;;;;;;4.97;2.55;;;-3276.00;73.40;;;-3.00;76.23;96115.44;5064314;28;20129;-68
2021/01/27 04:42:13;;;;;;;7.07;2.60;;;-3276.00;73.30;;;-3.00;76.30;96112.84;5066592;28;20033;-67
2021/01/27 04:44:39;;;;;;;5.20;2.65;;;-3276.10;73.30;;;-3.01;76.21;96111.22;5047460;28;20094;-65
2021/01/27 04:47:21;;;;;;;6.28;2.72;;;-3276.10;73.30;;;-3.03;76.40;96105.34;5058115;28;20032;-67
2021/01/27 04:50:10;;;;;;;6.47;3.08;;;-3276.10;73.20;;;-3.06;76.42;96103.81;5044126;28;20051;-68
2021/01/27 04:53:09;;;;;;;5.85;2.50;;;-3276.10;73.60;;;-3.10;76.34;96094.66;5060576;28;20582;-63
2021/01/27 04:56:28;;;;;;;4.15;2.33;;;-3276.10;73.20;;;-3.16;75.79;96101.06;5067267;28;20033;-69
2021/01/27 04:59:13;;;;;;;6.45;3.00;;;-3276.10;73.30;;;-3.20;75.89;96097.03;5062273;28;20041;-65
2021/01/27 05:02:02;;;;;;;8.90;3.13;;;-3276.00;73.10;;;-3.26;75.82;96087.16;5062978;28;20032;-69
2021/01/27 05:04:59;;;;;;;4.38;2.60;;;-3276.00;72.90;;;-3.29;75.75;96092.53;5064167;28;20059;-68
2021/01/27 05:07:44;;;;;;;4.28;2.70;;;-3275.90;73.20;;;-3.35;76.40;96087.81;5053356;28;20052;-69
2021/01/27 05:10:22;;;;;;;6.18;2.85;;;-3275.80;73.10;;;-3.38;76.02;96082.88;5067953;28;20112;-68
2021/01/27 05:13:05;;;;;;;5.72;2.67;;;-3275.80;73.10;;;-3.41;76.51;96073.59;5051346;28;20075;-68
2021/01/27 05:15:31;;;;;;;7.18;3.22;;;-3275.80;73.50;;;-3.41;76.38;96077.91;5030393;28;20756;-68
2021/01/27 05:17:58;;;;;;;8.27;3.40;;;-3275.80;73.70;;;-3.43;76.39;96070.31;5064496;28;20036;-68
2021/01/27 05:20:24;;;;;;;8.13;3.35;;;-3275.80;73.90;;;-3.46;76.26;96074.84;5067098;28;20032;-67
2021/01/27 05:22:50;;;;;;;13.00;5.60;;;-3275.70;74.00;;;-3.48;76.45;96071.56;5043112;28;20087;-68
2021/01/27 05:25:37;;;;;;;14.40;5.75;;;-3275.70;74.40;;;-3.49;76.92;96063.03;5050698;28;20033;-68
2021/01/27 05:28:04;;;;;;;10.32;4.25;;;-3275.70;74.50;;;-3.49;76.33;96064.78;5042857;28;20041;-68
2021/01/27 05:30:37;;;;;;;6.50;3.53;;;-3275.70;74.60;;;-3.51;76.93;96056.34;5030755;28;20029;-67
2021/01/27 05:33:03;;;;;;;6.80;3.53;;;-3275.70;74.60;;;-3.57;76.72;96046.47;5015639;28;20535;-68
2021/01/27 05:35:33;;;;;;;7.65;3.35;;;-3275.60;74.80;;;-3.60;76.68;96041.56;5049757;28;20029;-68
2021/01/27 05:38:00;;;;;;;7.68;3.05;;;-3275.50;74.80;;;-3.55;76.87;96054.91;5068037;28;20078;-68
2021/01/27 05:40:34;;;;;;;3.90;2.55;;;-3275.60;74.90;;;-3.58;76.60;96034.56;5049653;28;20045;-67
2021/01/27 05:43:24;;;;;;;4.80;2.50;;;-3275.60;74.60;;;-3.55;77.09;96045.44;5050645;28;20064;-67
2021/01/27 05:45:50;;;;;;;6.90;2.53;;;-3275.60;74.40;;;-3.52;76.59;96046.97;5031371;28;20607;-65
2021/01/27 05:48:34;;;;;;;11.65;3.35;;;-3275.60;74.40;;;-3.52;76.61;96040.09;5046489;28;20033;-64
2021/01/27 05:51:02;;;;;;;13.73;4.38;;;-3275.60;74.00;;;-3.49;76.82;96039.06;5056054;28;20056;-68
2021/01/27 05:53:30;;;;;;;10.73;4.07;;;-3275.60;74.70;;;-3.52;76.20;96034.13;5063625;28;20048;-68
2021/01/27 05:56:08;;;;;;;11.70;4.53;;;-3275.60;74.50;;;-3.46;76.49;96024.25;5066735;28;20036;-71
2021/01/27 05:59:01;;;;;;;8.82;3.40;;;-3275.60;73.90;;;-3.44;76.07;96027.53;5066361;28;20029;-70
2021/01/27 06:01:36;;;;;;;9.30;3.92;;;-3275.70;73.70;;;-3.43;76.26;96033.50;5058112;28;20040;-70
2021/01/27 06:04:11;;;;;;;8.20;4.32;;;-3275.50;73.30;;;-3.43;75.62;96028.34;5065530;28;20036;-70
2021/01/27 06:06:46;;;;;;;14.77;5.53;;;-3275.60;72.90;;;-3.42;75.53;96027.41;5057052;28;20040;-64
2021/01/27 06:09:12;;;;;;;9.73;4.90;;;-3275.60;73.00;;;-3.43;75.71;96021.47;5047796;28;20033;-71
2021/01/27 06:11:38;;;;;;;12.90;6.00;;;-3275.60;72.80;;;-3.44;75.96;96013.84;5038237;28;20399;-65
2021/01/27 06:14:16;;;;;;;11.48;6.15;;;-3275.50;72.80;;;-3.46;75.51;96013.97;5048578;28;20044;-65
2021/01/27 06:16:45;;;;;;;19.85;7.22;;;-3275.60;72.80;;;-3.43;75.76;96018.06;5040299;28;20037;-65
2021/01/27 06:19:21;;;;;;;12.63;6.20;;;-3275.60;72.50;;;-3.43;75.63;96015.50;5049982;28;20053;-66
2021/01/27 06:22:19;;;;;;;12.02;5.43;;;-3275.60;72.30;;;-3.43;74.86;96007.78;5041950;28;20147;-65
2021/01/27 06:25:22;;;;;;;15.45;6.07;;;-3275.60;72.40;;;-3.42;75.12;96014.56;5055067;28;20508;-70
2021/01/27 06:28:06;;;;;;;16.05;6.80;;;-3275.60;72.10;;;-3.40;75.32;96028.97;5048262;28;20044;-68
2021/01/27 06:31:15;;;;;;;12.68;5.07;;;-3275.70;72.30;;;-3.36;75.17;96029.59;5065616;28;20094;-69
2021/01/27 06:34:00;;;;;;;12.48;4.20;;;-3275.90;72.30;;;-3.36;75.08;96013.34;5066711;28;20040;-66
2021/01/27 06:37:01;;;;;;;22.45;8.07;;;-3275.80;71.80;;;-3.38;74.95;96015.19;5062274;28;20082;-67
2021/01/27 06:39:46;;;;;;;21.23;8.48;;;-3275.70;71.90;;;-3.42;75.27;96009.41;5030851;28;20045;-69
2021/01/27 06:42:42;;;;;;;19.25;6.40;;;-3275.70;72.00;;;-3.40;74.82;96010.13;5039796;28;20034;-72
2021/01/27 06:45:10;;;;;;;13.60;5.72;;;-3275.70;71.80;;;-3.39;75.50;96004.09;5056603;28;20029;-70
2021/01/27 06:48:01;;;;;;;14.25;5.20;;;-3275.80;71.90;;;-3.40;75.29;96002.41;5063574;28;20084;-71
2021/01/27 06:50:35;;;;;;;15.70;4.65;;;-3275.70;72.00;;;-3.37;75.81;96002.22;5073726;28;20048;-71
2021/01/27 06:53:31;;;;;;;8.98;3.50;;;-3275.80;72.40;;;-3.36;75.50;96011.59;5058316;28;20048;-70
2021/01/27 06:56:57;;;;;;;6.28;2.72;;;-3275.90;72.10;;;-3.32;75.18;96004.47;5061081;28;20069;-71
2021/01/27 06:59:33;;;;;;;7.30;2.60;;;-3275.90;72.00;;;-3.31;75.70;96009.50;5042819;28;20033;-72
2021/01/27 07:02:27;;;;;;;8.23;4.28;;;-3275.90;71.90;;;-3.31;75.80;96001.81;5035728;28;20473;-72
2021/01/27 07:05:28;;;;;;;12.95;6.28;;;-3276.00;72.20;;;-3.30;75.30;96003.44;5066443;28;20063;-68
2021/01/27 07:08:21;;;;;;;8.83;3.60;;;-3276.00;71.80;;;-3.31;75.13;96012.09;5045085;28;20037;-69
2021/01/27 07:10:57;;;;;;;5.13;2.65;;;-3276.00;71.60;;;-3.27;75.42;96003.22;5041517;28;20043;-70
2021/01/27 07:14:21;;;;;;;5.03;2.38;;;-3276.00;71.50;;;-3.24;75.30;95999.63;5064552;28;20098;-71
2021/01/27 07:17:13;;;;;;;7.95;2.92;;;-3276.00;71.50;;;-3.24;75.26;95992.72;5020103;28;20131;-71
2021/01/27 07:20:20;;;;;;;8.70;2.70;;;-3276.00;71.70;;;-3.23;75.19;95996.13;5055425;28;20635;-70
2021/01/27 07:23:04;;;;;;;7.32;2.47;;;-3276.00;71.40;;;-3.18;75.21;95987.13;5007725;28;20152;-70
2021/01/27 07:25:55;;;;;;;8.32;2.22;;;-3276.10;71.40;;;-3.16;75.02;95987.88;5057308;28;20352;-70
2021/01/27 07:28:53;;;;;;;;;;;-3276.10;71.20;;;-3.14;74.96;95988.59;5074296;28;20036;-67
2021/01/27 07:31:38;;;;;;;4.85;2.25;;;-3276.10;71.20;;;-3.08;75.06;95982.19;5061538;28;19916;-69
2021/01/27 07:34:22;;;;;;;4.88;1.70;;;-3276.20;71.20;;;-3.05;74.73;95976.81;5052023;28;20045;-65
2021/01/27 07:37:12;;;;;;;7.10;2.65;;;-3276.10;70.70;;;-3.01;74.76;95977.41;5073881;28;20086;-69
2021/01/27 07:40:12;;;;;;;8.68;2.35;;;-3276.30;70.90;;;-2.93;74.79;95970.00;5052005;28;20047;-70
2021/01/27 07:43:12;;;;;;;4.70;1.83;;;-3276.30;70.90;;;-2.86;74.40;95968.63;5056429;28;20025;-70
2021/01/27 07:45:39;;;;;;;4.88;1.70;;;-3276.50;70.20;;;-2.79;74.84;95957.75;5046255;28;20060;-62
2021/01/27 07:48:34;;;;;;;5.72;2.25;;;-3276.60;69.60;;;-2.71;74.34;95964.94;5064205;28;20021;-67
2021/01/27 07:51:04;;;;;;;4.97;2.17;;;-3276.70;69.40;;;-2.65;74.71;95948.22;5052039;28;20033;-69
2021/01/27 07:53:43;;;;;;;7.93;2.43;;;0.00;69.00;;;-2.54;73.77;95961.13;5058195;28;20464;-69
2021/01/27 07:56:20;;;;;;;7.35;2.42;;;0.10;68.60;;;-2.47;73.77;95967.47;5048310;28;20274;-70
2021/01/27 07:59:11;;;;;;;5.70;1.98;;;0.20;68.10;;;-2.38;73.66;95976.28;5032822;28;20029;-66
2021/01/27 08:01:44;;;;;;;7.25;2.72;;;0.20;67.90;;;-2.33;74.01;95972.41;5033971;28;20044;-66
2021/01/27 08:04:48;;;;;;;3.45;2.15;;;0.30;67.60;;;-2.26;72.74;95975.38;5071757;28;20549;-70
2021/01/27 08:07:35;;;;;;;5.32;2.42;;;0.40;67.10;;;-2.20;73.10;95973.16;5064223;28;20033;-70
2021/01/27 08:10:23;;;;;;;10.52;4.05;;;0.60;67.10;;;-2.10;72.94;95970.72;5035534;28;20722;-69
2021/01/27 08:12:59;;;;;;;12.75;3.95;;;0.60;66.40;;;-2.03;72.97;95966.75;5066668;28;20044;-62
2021/01/27 08:15:24;;;;;;;10.25;4.13;;;0.70;66.20;;;-1.98;73.84;95964.66;5056335;28;20519;-67
2021/01/27 08:17:58;;;;;;;16.73;5.80;;;0.70;65.60;;;-1.91;73.09;95965.00;5075031;28;20060;-71
2021/01/27 08:20:27;;;;;;;13.15;5.60;;;0.70;65.10;;;-1.88;73.49;95964.78;5069545;28;20516;-71
2021/01/27 08:22:52;;;;;;;20.48;8.65;;;0.70;64.90;;;-1.82;73.77;95968.63;5064295;28;20095;-65
2021/01/27 08:25:52;;;;;;;24.42;9.52;;;0.80;65.00;;;-1.75;71.43;95974.97;5077330;28;20044;-67
2021/01/27 08:28:32;;;;;;;19.13;8.18;;;0.90;65.40;;;-1.68;72.04;95982.13;5060403;28;20084;-70
2021/01/27 08:31:07;;;;;;;39.63;18.48;;;1.10;64.50;;;-1.58;72.73;95984.84;5077236;28;20036;-73
2021/01/27 08:33:53;;;;;;;27.45;13.70;;;1.30;65.90;;;-1.46;72.98;95990.81;5074926;28;20146;-69
2021/01/27 08:36:21;;;;;;;9.60;6.18;;;1.40;66.00;;;-1.38;73.37;95993.59;5028143;28;20037;-68
2021/01/27 08:38:55;;;;;;;11.48;4.53;;;1.50;64.30;;;-1.29;72.08;95978.25;5067686;28;20040;-70
2021/01/27 08:41:51;;;;;;;6.63;4.00;;;1.60;63.90;;;-1.20;70.93;95971.53;5070302;28;20033;-67
2021/01/27 08:44:20;;;;;;;5.53;3.30;;;1.60;63.40;;;-1.12;72.58;95979.53;5077063;28;20368;-73
2021/01/27 08:46:58;;;;;;;10.38;3.67;;;1.60;63.10;;;-1.06;71.36;95983.38;5079191;28;20169;-73
2021/01/27 08:49:51;;;;;;;7.40;3.92;;;1.70;62.80;;;-0.98;69.72;95971.50;5068619;28;20036;-73
2021/01/27 08:52:17;;;;;;;6.57;3.88;;;1.80;61.90;;;-0.89;72.67;95969.16;5067342;28;20119;-72
2021/01/27 08:54:44;;;;;;;6.65;3.10;;;2.00;61.60;;;-0.79;72.83;95964.88;5081326;28;20020;-73
2021/01/27 08:57:20;;;;;;;7.90;3.42;;;2.20;60.40;;;-0.67;71.24;95975.06;5063406;28;20116;-72
2021/01/27 09:00:21;;;;;;;6.88;3.42;;;2.40;60.40;;;-0.49;68.94;95977.06;5034918;28;20209;-72
2021/01/27 09:03:00;;;;;;;;;;;2.50;59.70;;;-0.40;68.62;95976.34;5040721;28;20044;-72
2021/01/27 09:05:26;;;;;;;8.27;3.10;;;2.50;59.30;;;-0.35;72.03;95974.19;5034278;28;20005;-71
2021/01/27 09:08:28;;;;;;;5.95;3.40;;;2.40;59.30;;;-0.32;68.10;95961.03;5066821;28;20067;-69
2021/01/27 09:11:00;;;;;;;8.15;4.47;;;2.40;59.40;;;-0.31;70.06;95949.75;5055765;28;20573;-68
2021/01/27 09:13:40;;;;;;;8.85;4.60;;;2.40;59.40;;;-0.25;69.16;95969.09;5023470;28;20498;-67
2021/01/27 09:16:20;;;;;;;8.13;4.10;;;2.50;59.50;;;-0.23;68.21;95968.00;5065302;28;20632;-67
2021/01/27 09:19:11;;;;;;;5.60;3.22;;;2.50;59.20;;;-0.22;68.06;95974.84;5026854;28;20108;-70
2021/01/27 09:21:37;;;;;;;10.25;3.83;;;2.60;59.00;;;-0.17;71.32;95966.72;5037794;28;20025;-67
2021/01/27 09:24:16;;;;;;;8.30;3.80;;;2.60;59.50;;;-0.10;69.77;95963.50;5064632;28;20051;-70
2021/01/27 09:26:44;;;;;;;7.65;4.13;;;2.70;58.70;;;0.02;70.68;95958.25;5053528;28;20028;-66
2021/01/27 09:29:24;;;;;;;7.40;3.88;;;3.00;58.30;;;0.15;69.26;95956.28;5068816;28;20468;-70
2021/01/27 09:31:51;;;;;;;6.75;2.70;;;3.30;56.80;;;0.22;70.33;95953.03;5049408;28;20041;-66
2021/01/27 09:34:37;;;;;;;4.55;2.40;;;3.20;55.60;;;0.26;66.61;95962.19;5053053;28;20520;-68
2021/01/27 09:37:20;;;;;;;6.25;2.55;;;3.00;55.70;;;0.24;66.40;95956.34;5068865;28;20040;-63
2021/01/27 09:39:52;;;;;;;6.55;2.78;;;2.80;56.30;;;0.29;67.77;95963.72;5062911;28;20044;-63
2021/01/27 09:42:28;;;;;;;5.50;2.47;;;3.10;56.30;;;0.36;66.62;95959.66;5066730;28;20755;-65
2021/01/27 09:45:08;;;;;;;7.25;2.75;;;3.30;56.00;;;0.45;66.77;95958.84;5051899;28;20122;-69
2021/01/27 09:47:34;;;;;;;8.70;4.00;;;3.50;55.20;;;0.54;69.91;95952.91;5053508;28;20046;-70
2021/01/27 09:50:00;;;;;;;13.43;6.90;;;3.50;55.50;;;0.56;69.48;95940.66;5053766;28;20048;-66
2021/01/27 09:52:27;;;;;;;16.60;7.32;;;3.40;55.60;;;0.59;69.47;95950.75;5029409;28;20060;-69
2021/01/27 09:54:57;;;;;;;9.90;4.45;;;3.40;55.40;;;0.65;68.69;95948.56;5025525;28;20508;-66
2021/01/27 09:57:24;;;;;;;10.77;4.93;;;3.80;53.90;;;0.81;69.21;95948.91;5057407;28;20550;-69
2021/01/27 09:59:53;;;;;;;6.25;2.83;;;4.20;54.20;;;0.95;68.45;95942.53;5039468;28;20032;-72
2021/01/27 10:02:32;;;;;;;9.50;4.75;;;4.40;51.80;;;1.14;65.63;95938.22;5036763;28;20029;-71
2021/01/27 10:05:01;;;;;;;6.28;3.17;;;4.70;51.40;;;1.31;67.38;95930.69;5038155;28;20033;-70
2021/01/27 10:07:45;;;;;;;5.38;2.70;;;4.70;50.50;;;1.43;63.85;95932.22;5066425;28;20043;-67
2021/01/27 10:10:16;;;;;;;10.98;2.08;;;4.60;51.00;;;1.47;66.91;95930.97;5066742;28;20024;-73
2021/01/27 10:12:42;;;;;;;7.20;2.33;;;4.60;51.10;;;1.54;68.05;95943.25;5030241;28;20655;-70
2021/01/27 10:15:24;;;;;;;5.40;2.17;;;4.60;51.20;;;1.64;63.31;95938.06;5022908;28;20033;-71
2021/01/27 10:18:09;;;;;;;6.93;2.58;;;4.90;50.40;;;1.76;63.12;95939.53;5059420;28;20128;-66
2021/01/27 10:20:36;;;;;;;7.10;2.65;;;5.30;49.40;;;1.95;66.90;95930.09;5045945;28;20174;-68
2021/01/27 10:23:08;;;;;;;7.18;3.13;;;5.70;49.30;;;2.16;64.29;95938.50;5045443;28;20036;-64
2021/01/27 10:25:37;;;;;;;6.10;2.72;;;6.20;47.00;;;2.35;66.11;95937.63;5065194;28;20048;-64
2021/01/27 10:28:13;;;;;;;6.60;3.10;;;6.50;46.50;;;2.55;63.44;95939.19;5031988;28;20086;-69
2021/01/27 10:30:59;;;;;;;10.40;3.90;;;6.70;46.30;;;2.77;62.10;95956.19;5052122;28;20060;-69
2021/01/27 10:33:48;;;;;;;7.75;3.63;;;7.20;45.70;;;2.96;61.09;95942.28;5032430;28;20088;-63
2021/01/27 10:36:30;;;;;;;8.25;3.40;;;7.10;45.10;;;3.28;60.49;95921.81;5076592;28;20030;-67
2021/01/27 10:39:20;;;;;;;33.35;15.38;;;8.20;42.00;;;3.60;60.33;95921.28;5083861;28;20112;-68
2021/01/27 10:42:06;;;;;;;7.60;3.88;;;8.70;41.50;;;3.83;63.72;95931.19;5047341;28;20548;-68
2021/01/27 10:44:38;;;;;;;6.10;3.28;;;9.00;40.20;;;3.93;63.63;95926.72;5049250;28;20199;-67
2021/01/27 10:47:10;;;;;;;7.22;3.05;;;7.90;41.20;;;3.94;60.38;95917.97;5086032;28;20204;-69
2021/01/27 10:49:43;;;;;;;5.95;3.00;;;7.40;41.70;;;3.79;59.06;95915.06;5057178;28;20029;-63
2021/01/27 10:52:20;;;;;;;5.60;2.67;;;6.50;43.10;;;3.73;58.41;95920.06;5045562;28;20024;-67
2021/01/27 10:54:46;;;;;;;4.57;2.45;;;6.40;43.40;;;3.61;63.81;95922.91;5056754;28;20078;-64
2021/01/27 10:57:17;;;;;;;5.93;2.55;;;6.20;43.80;;;3.51;59.70;95916.16;5059481;28;20029;-64